Time;durP1;ratioP1;P1;durP2;ratioP2;P2;SDS_P1;SDS_P2;PMS_P1;PMS_P2;Temp;Humidity;BMP_temperature;BMP_pressure;BME280_temperature;BME280_humidity;BME280_pressure;Samples;Min_cycle;Max_cycle;Signal;HPM_P1;HPM_P2
2023/12/01 00:00:05;;;;;;;24.97;19.73;;;;;21.80;99190.00;;;;2067322;28;20261;-54
2023/12/01 00:01:06;;;;;;;28.55;18.75;;;;;21.80;99187.00;;;;2069579;28;20210;-54
2023/12/01 00:02:06;;;;;;;25.77;20.77;;;;;21.80;99186.00;;;;2066898;28;20218;-54
2023/12/01 00:03:06;;;;;;;22.67;18.80;;;;;21.80;99194.00;;;;2066571;28;20669;-54
2023/12/01 00:04:07;;;;;;;23.20;18.70;;;;;21.80;99181.00;;;;2059680;28;20210;-54
2023/12/01 00:05:07;;;;;;;25.90;19.90;;;;;21.80;99194.00;;;;2069602;28;20225;-54
2023/12/01 00:06:08;;;;;;;23.30;18.97;;;;;21.80;99194.00;;;;2070720;28;20228;-54
2023/12/01 00:07:08;;;;;;;22.13;18.17;;;;;21.80;99207.00;;;;2084160;28;20217;-54
2023/12/01 00:08:09;;;;;;;20.13;16.67;;;;;21.80;99198.00;;;;2068550;28;20633;-54
2023/12/01 00:09:09;;;;;;;23.43;18.63;;;;;21.80;99197.00;;;;2057796;28;20269;-54
2023/12/01 00:10:10;;;;;;;23.80;18.70;;;;;21.80;99198.00;;;;2069719;28;20218;-54
2023/12/01 00:11:10;;;;;;;22.45;18.00;;;;;21.80;99207.00;;;;2069456;28;20314;-54
2023/12/01 00:12:11;;;;;;;24.73;19.23;;;;;21.70;99202.00;;;;2069720;28;20264;-54
2023/12/01 00:13:11;;;;;;;22.23;17.70;;;;;21.70;99201.00;;;;2069386;28;20215;-54
2023/12/01 00:14:12;;;;;;;22.20;17.63;;;;;21.70;99198.00;;;;2059165;28;20768;-54
2023/12/01 00:15:12;;;;;;;21.40;16.93;;;;;21.70;99200.00;;;;2069517;28;20591;-55
2023/12/01 00:16:13;;;;;;;22.80;17.20;;;;;21.70;99200.00;;;;2069075;28;20301;-54
2023/12/01 00:17:13;;;;;;;20.37;17.43;;;;;21.70;99193.00;;;;2068750;28;20214;-54
2023/12/01 00:18:14;;;;;;;20.33;17.80;;;;;21.70;99196.00;;;;2068319;28;20465;-55
2023/12/01 00:19:14;;;;;;;20.87;16.90;;;;;21.70;99196.00;;;;2059130;28;20588;-55
2023/12/01 00:20:14;;;;;;;21.00;16.93;;;;;21.70;99196.00;;;;2069794;28;20733;-54
2023/12/01 00:21:15;;;;;;;22.43;18.43;;;;;21.70;99197.00;;;;2069161;28;20261;-54
2023/12/01 00:22:15;;;;;;;20.90;17.10;;;;;21.70;99203.00;;;;2067636;28;20219;-54
2023/12/01 00:23:15;;;;;;;20.63;17.83;;;;;21.70;99198.00;;;;2069414;28;20229;-54
2023/12/01 00:24:16;;;;;;;19.90;16.60;;;;;21.70;99201.00;;;;2058924;28;20206;-54
2023/12/01 00:25:16;;;;;;;20.70;16.93;;;;;21.70;99199.00;;;;2069346;28;20232;-54
2023/12/01 00:26:16;;;;;;;21.10;16.23;;;;;21.70;99203.00;;;;2069155;28;20218;-54
2023/12/01 00:27:17;;;;;;;21.67;16.63;;;;;21.70;99197.00;;;;2069588;28;20238;-54
2023/12/01 00:28:17;;;;;;;19.17;16.00;;;;;21.60;99198.00;;;;2070289;28;20222;-54
2023/12/01 00:29:17;;;;;;;22.20;17.60;;;;;21.60;99202.00;;;;2060603;28;20215;-54
2023/12/01 00:30:18;;;;;;;21.73;17.40;;;;;21.60;99194.00;;;;2070443;28;20218;-54
2023/12/01 00:31:19;;;;;;;21.90;16.60;;;;;21.60;99204.00;;;;2071029;28;20228;-54
2023/12/01 00:32:19;;;;;;;20.90;16.87;;;;;21.60;99199.00;;;;2068224;28;20258;-55
2023/12/01 00:33:20;;;;;;;19.90;16.53;;;;;21.60;99204.00;;;;2067129;28;20210;-54
2023/12/01 00:34:20;;;;;;;18.90;16.17;;;;;21.60;99211.00;;;;2060313;28;20947;-54
2023/12/01 00:35:20;;;;;;;19.60;16.10;;;;;21.60;99213.00;;;;2070108;28;20276;-54
2023/12/01 00:36:21;;;;;;;20.97;16.30;;;;;21.60;99210.00;;;;2070928;28;20218;-54
2023/12/01 00:37:22;;;;;;;21.50;16.97;;;;;21.60;99211.00;;;;2069318;28;20213;-55
2023/12/01 00:38:22;;;;;;;19.27;15.97;;;;;21.60;99208.00;;;;2070453;28;20214;-54
2023/12/01 00:39:22;;;;;;;21.17;16.60;;;;;21.60;99210.00;;;;2059989;28;20225;-54
2023/12/01 00:40:23;;;;;;;21.40;16.50;;;;;21.60;99216.00;;;;2068323;28;20214;-54
2023/12/01 00:41:23;;;;;;;19.50;16.30;;;;;21.60;99221.00;;;;2066691;28;20218;-54
2023/12/01 00:42:23;;;;;;;20.23;16.17;;;;;21.50;99222.00;;;;2070161;28;20211;-55
2023/12/01 00:43:25;;;;;;;19.50;15.90;;;;;21.60;99222.00;;;;2070935;28;20238;-54
2023/12/01 00:44:26;;;;;;;19.67;15.88;;;;;21.60;99228.00;;;;2060241;28;20214;-54
2023/12/01 00:45:27;;;;;;;18.67;15.32;;;;;21.50;99226.00;;;;2070002;28;20215;-54
2023/12/01 00:46:27;;;;;;;18.70;16.13;;;;;21.50;99226.00;;;;2063039;28;20219;-54
2023/12/01 00:47:27;;;;;;;18.27;15.13;;;;;21.50;99220.00;;;;2066329;28;20218;-54
2023/12/01 00:48:28;;;;;;;19.17;16.03;;;;;21.50;99233.00;;;;2069701;28;20261;-54
2023/12/01 00:49:31;;;;;;;20.53;15.47;;;;;21.50;99290.00;;;;2059767;28;20218;-54
2023/12/01 00:50:31;;;;;;;19.70;15.90;;;;;21.50;99252.00;;;;2070505;28;20218;-55
2023/12/01 00:51:32;;;;;;;16.67;14.40;;;;;21.50;99221.00;;;;2070298;28;20691;-55
2023/12/01 00:52:33;;;;;;;18.80;15.37;;;;;21.50;99231.00;;;;2070592;28;20695;-54
2023/12/01 00:53:33;;;;;;;19.40;14.93;;;;;21.50;99225.00;;;;2070942;28;20210;-54
2023/12/01 00:54:33;;;;;;;18.03;14.80;;;;;21.50;99231.00;;;;2060486;28;20449;-55
2023/12/01 00:55:33;;;;;;;21.57;16.20;;;;;21.50;99232.00;;;;2069498;28;20217;-55
2023/12/01 00:56:35;;;;;;;20.70;15.57;;;;;20.00;99230.00;;;;2070522;28;20210;-55
2023/12/01 00:57:35;;;;;;;19.25;15.32;;;;;21.50;99225.00;;;;2068963;28;20338;-54
2023/12/01 00:58:35;;;;;;;18.63;15.63;;;;;21.50;99229.00;;;;2063787;28;20350;-54
2023/12/01 00:59:36;;;;;;;19.80;15.67;;;;;21.50;99230.00;;;;2058077;28;20221;-54
2023/12/01 01:00:36;;;;;;;18.63;15.43;;;;;21.50;99247.00;;;;2070878;28;20225;-55
2023/12/01 01:01:36;;;;;;;19.80;15.00;;;;;21.50;99227.00;;;;2070287;28;20210;-54
2023/12/01 01:02:37;;;;;;;17.53;15.27;;;;;21.50;99233.00;;;;2066648;28;20209;-54
2023/12/01 01:03:37;;;;;;;17.63;15.07;;;;;21.50;99237.00;;;;2068108;28;20206;-54
2023/12/01 01:04:37;;;;;;;16.17;14.33;;;;;21.50;99234.00;;;;2060478;28;20202;-54
2023/12/01 01:05:38;;;;;;;18.57;15.07;;;;;21.50;99238.00;;;;2070865;28;20210;-54
2023/12/01 01:06:38;;;;;;;18.70;14.90;;;;;21.50;99229.00;;;;2069880;28;20214;-54
2023/12/01 01:07:38;;;;;;;18.37;14.17;;;;;21.50;99236.00;;;;2068580;28;20230;-54
2023/12/01 01:08:38;;;;;;;19.90;15.10;;;;;21.50;99241.00;;;;2069864;28;20210;-54
2023/12/01 01:09:39;;;;;;;16.47;13.63;;;;;21.50;99231.00;;;;2061174;28;20221;-54
2023/12/01 01:10:39;;;;;;;18.30;15.60;;;;;21.40;99237.00;;;;2070630;28;20249;-54
2023/12/01 01:11:40;;;;;;;16.43;13.50;;;;;21.50;99238.00;;;;2070620;28;20248;-55
2023/12/01 01:12:40;;;;;;;17.73;15.00;;;;;21.50;99230.00;;;;2066966;28;20554;-54
2023/12/01 01:13:40;;;;;;;17.03;13.37;;;;;21.50;99240.00;;;;2070471;28;20269;-54
2023/12/01 01:14:41;;;;;;;18.47;15.07;;;;;21.40;99234.00;;;;2061117;28;20307;-54
2023/12/01 01:15:41;;;;;;;16.70;14.20;;;;;21.40;99246.00;;;;2070479;28;20210;-54
2023/12/01 01:16:41;;;;;;;18.27;13.80;;;;;21.40;99240.00;;;;2068021;28;20218;-54
2023/12/01 01:17:42;;;;;;;16.07;14.00;;;;;21.40;99240.00;;;;2068822;28;20252;-54
2023/12/01 01:18:42;;;;;;;18.03;13.57;;;;;21.40;99249.00;;;;2068385;28;20210;-54
2023/12/01 01:19:43;;;;;;;18.07;14.50;;;;;21.40;99240.00;;;;2060965;28;20210;-54
2023/12/01 01:20:44;;;;;;;17.00;14.32;;;;;21.40;99242.00;;;;2070435;28;20264;-54
2023/12/01 01:21:44;;;;;;;16.53;13.90;;;;;21.40;99242.00;;;;2070849;28;20259;-54
2023/12/01 01:22:44;;;;;;;17.17;14.73;;;;;21.40;99248.00;;;;2067476;28;20211;-55
2023/12/01 01:23:45;;;;;;;16.80;14.20;;;;;21.40;99246.00;;;;2070689;28;20207;-54
2023/12/01 01:24:45;;;;;;;16.53;13.97;;;;;21.40;99323.00;;;;2060700;28;20230;-54
2023/12/01 01:25:46;;;;;;;19.73;14.67;;;;;21.40;99244.00;;;;2070392;28;20563;-54
2023/12/01 01:26:46;;;;;;;16.50;13.90;;;;;21.40;99245.00;;;;2065407;28;20696;-54
2023/12/01 01:27:46;;;;;;;18.50;13.83;;;;;21.40;99241.00;;;;2069320;28;20725;-54
2023/12/01 01:28:47;;;;;;;15.17;12.87;;;;;21.40;99254.00;;;;2070358;28;20202;-54
2023/12/01 01:29:47;;;;;;;16.63;13.40;;;;;21.40;99248.00;;;;2060264;28;20306;-54
2023/12/01 01:30:47;;;;;;;16.50;13.77;;;;;21.40;99250.00;;;;2067495;28;20248;-54
2023/12/01 01:31:48;;;;;;;18.10;13.43;;;;;21.40;99253.00;;;;2070404;28;20214;-54
2023/12/01 01:32:48;;;;;;;15.43;13.10;;;;;21.40;99255.00;;;;2070354;28;20213;-54
2023/12/01 01:33:48;;;;;;;17.50;13.90;;;;;21.40;99238.00;;;;2070648;28;20207;-54
2023/12/01 01:34:49;;;;;;;17.70;14.03;;;;;21.40;99255.00;;;;2057690;28;20276;-54
2023/12/01 01:35:49;;;;;;;15.67;13.23;;;;;21.40;99252.00;;;;2066056;28;20431;-54
2023/12/01 01:36:49;;;;;;;16.93;14.33;;;;;21.30;99252.00;;;;2069940;28;20266;-54
2023/12/01 01:37:50;;;;;;;16.40;13.63;;;;;21.30;99255.00;;;;2069633;28;20310;-54
2023/12/01 01:38:50;;;;;;;17.40;14.40;;;;;21.30;99249.00;;;;2068299;28;20249;-54
2023/12/01 01:39:50;;;;;;;17.97;13.00;;;;;20.60;99248.00;;;;2059062;28;20222;-54
2023/12/01 01:40:51;;;;;;;18.10;14.83;;;;;21.30;99256.00;;;;2069888;28;20210;-54
2023/12/01 01:41:51;;;;;;;15.53;12.70;;;;;21.30;99248.00;;;;2067893;28;20217;-54
2023/12/01 01:42:52;;;;;;;15.60;13.03;;;;;21.30;99261.00;;;;2070434;28;20206;-54
2023/12/01 01:43:52;;;;;;;17.83;14.27;;;;;21.30;99251.00;;;;2070563;28;20985;-55
2023/12/01 01:44:52;;;;;;;16.07;13.40;;;;;21.30;99254.00;;;;2066085;28;20867;-54
2023/12/01 01:46:02;;;;;;;14.43;12.27;;;;;21.30;99248.00;;;;2078112;28;20229;-54
2023/12/01 01:47:03;;;;;;;17.08;12.93;;;;;21.30;99245.00;;;;2069250;28;21058;-54
2023/12/01 01:48:04;;;;;;;16.13;13.67;;;;;21.30;99246.00;;;;2070368;28;20247;-54
2023/12/01 01:49:05;;;;;;;17.10;12.70;;;;;21.30;99250.00;;;;2060308;28;20314;-54
2023/12/01 01:50:07;;;;;;;15.40;12.73;;;;;21.30;99248.00;;;;2067231;28;20713;-54
2023/12/01 01:51:08;;;;;;;16.65;13.75;;;;;21.30;99253.00;;;;2069790;28;20214;-56
2023/12/01 01:52:08;;;;;;;16.80;12.77;;;;;21.30;99249.00;;;;2069292;28;20296;-55
2023/12/01 01:53:09;;;;;;;16.30;12.93;;;;;21.30;99254.00;;;;2051440;28;20692;-54
2023/12/01 01:54:10;;;;;;;16.17;13.30;;;;;21.30;99213.00;;;;2050870;28;21046;-55
2023/12/01 01:55:10;;;;;;;16.60;13.50;;;;;21.30;99244.00;;;;2067951;28;20722;-54
2023/12/01 01:56:12;;;;;;;17.10;13.67;;;;;21.30;99260.00;;;;2061399;28;20453;-55
2023/12/01 01:57:12;;;;;;;13.35;11.95;;;;;21.30;99254.00;;;;2067657;28;20273;-54
2023/12/01 01:58:12;;;;;;;16.47;13.43;;;;;21.30;99262.00;;;;2068358;28;20230;-54
2023/12/01 01:59:13;;;;;;;16.73;13.07;;;;;21.30;99260.00;;;;2059889;28;20210;-54
2023/12/01 02:00:16;;;;;;;18.70;12.93;;;;;21.30;99253.00;;;;2070317;28;20222;-54
2023/12/01 02:01:17;;;;;;;16.13;12.52;;;;;21.30;99255.00;;;;2069823;28;20453;-54
2023/12/01 02:02:17;;;;;;;16.70;13.13;;;;;21.20;99255.00;;;;2070487;28;20713;-54
2023/12/01 02:03:18;;;;;;;16.23;13.00;;;;;21.20;99255.00;;;;2069107;28;20195;-54
2023/12/01 02:04:19;;;;;;;17.58;13.80;;;;;21.20;99254.00;;;;2064989;28;20210;-54
2023/12/01 02:05:19;;;;;;;15.50;13.07;;;;;21.20;99252.00;;;;2077501;28;20633;-55
2023/12/01 02:06:23;;;;;;;15.27;12.07;;;;;21.20;99254.00;;;;2070291;28;20214;-55
2023/12/01 02:07:26;;;;;;;15.80;12.65;;;;;21.20;99255.00;;;;2069650;28;20608;-54
2023/12/01 02:08:27;;;;;;;14.98;12.30;;;;;21.20;99252.00;;;;2069134;28;20694;-54
2023/12/01 02:09:34;;;;;;;15.05;12.32;;;;;21.20;99111.00;;;;2060856;28;20221;-54
2023/12/01 02:10:36;;;;;;;16.50;13.02;;;;;21.20;99262.00;;;;2064966;28;20215;-54
2023/12/01 02:11:37;;;;;;;14.93;12.15;;;;;21.20;99259.00;;;;2068324;28;20707;-54
2023/12/01 02:12:38;;;;;;;14.27;11.82;;;;;21.20;99268.00;;;;2069512;28;20215;-54
2023/12/01 02:13:39;;;;;;;14.90;12.67;;;;;21.20;99268.00;;;;2062178;28;20211;-58
2023/12/01 02:14:40;;;;;;;15.52;12.55;;;;;21.20;99312.00;;;;2057010;28;20206;-55
2023/12/01 02:15:42;;;;;;;14.70;11.70;;;;;21.20;99262.00;;;;2068016;28;20560;-55
2023/12/01 02:16:45;;;;;;;17.10;13.02;;;;;21.20;99262.00;;;;2070339;28;20445;-54
2023/12/01 02:17:45;;;;;;;14.63;11.95;;;;;21.20;99267.00;;;;2067274;28;20643;-54
2023/12/01 02:18:46;;;;;;;14.73;11.70;;;;;21.20;99263.00;;;;2069950;28;20213;-54
2023/12/01 02:19:46;;;;;;;15.50;12.40;;;;;21.20;99266.00;;;;2059789;28;20230;-54
2023/12/01 02:20:47;;;;;;;14.10;11.90;;;;;21.20;99263.00;;;;2084884;28;20266;-54
2023/12/01 02:21:47;;;;;;;14.90;11.87;;;;;21.20;99259.00;;;;2086026;28;20209;-54
2023/12/01 02:22:47;;;;;;;15.77;11.73;;;;;21.20;99266.00;;;;2063872;28;20210;-54
2023/12/01 02:23:48;;;;;;;14.53;11.83;;;;;21.10;99260.00;;;;2070261;28;20218;-54
2023/12/01 02:24:48;;;;;;;13.03;11.30;;;;;21.20;99259.00;;;;2056974;28;20218;-54
2023/12/01 02:25:48;;;;;;;14.03;12.50;;;;;21.10;99257.00;;;;2069011;28;20250;-54
2023/12/01 02:26:49;;;;;;;15.83;12.30;;;;;21.10;99260.00;;;;2068315;28;20261;-54
2023/12/01 02:27:49;;;;;;;13.80;12.00;;;;;21.10;99252.00;;;;2067188;28;20218;-54
2023/12/01 02:28:50;;;;;;;15.60;12.37;;;;;21.10;99261.00;;;;2068255;28;20292;-54
2023/12/01 02:29:50;;;;;;;15.60;11.70;;;;;21.10;99259.00;;;;2072981;28;20486;-54
2023/12/01 02:30:53;;;;;;;13.40;11.63;;;;;21.10;99262.00;;;;2085773;28;20220;-54
2023/12/01 02:31:53;;;;;;;13.57;12.07;;;;;21.10;99298.00;;;;2068678;28;20226;-54
2023/12/01 02:32:53;;;;;;;12.20;10.90;;;;;21.10;99266.00;;;;2068925;28;20625;-54
2023/12/01 02:33:54;;;;;;;14.20;11.77;;;;;21.10;99276.00;;;;2069867;28;20695;-54
2023/12/01 02:34:54;;;;;;;14.93;11.97;;;;;21.10;99273.00;;;;2074922;28;20700;-54
2023/12/01 02:35:54;;;;;;;12.93;11.00;;;;;21.10;99270.00;;;;2085990;28;20697;-54
2023/12/01 02:36:58;;;;;;;12.87;10.40;;;;;21.10;99269.00;;;;2070560;28;20914;-54
2023/12/01 02:37:59;;;;;;;14.00;11.60;;;;;21.10;99272.00;;;;2070139;28;20321;-54
2023/12/01 02:38:59;;;;;;;13.60;11.70;;;;;21.10;99280.00;;;;2061888;28;20218;-54
2023/12/01 02:40:00;;;;;;;13.30;11.23;;;;;21.10;99275.00;;;;2070180;28;20403;-54
2023/12/01 02:41:02;;;;;;;15.33;12.53;;;;;21.10;99271.00;;;;2069394;28;20237;-54
2023/12/01 02:42:02;;;;;;;15.13;11.45;;;;;21.10;99277.00;;;;2070016;28;20229;-54
2023/12/01 02:43:03;;;;;;;16.80;13.00;;;;;21.10;99279.00;;;;2070235;28;20732;-54
2023/12/01 02:44:03;;;;;;;13.90;11.10;;;;;21.10;99276.00;;;;2060127;28;20222;-54
2023/12/01 02:45:05;;;;;;;14.23;11.63;;;;;21.10;99274.00;;;;2069757;28;20214;-54
2023/12/01 02:46:05;;;;;;;15.80;12.63;;;;;21.00;99279.00;;;;2069373;28;20272;-54
2023/12/01 02:47:08;;;;;;;13.97;11.40;;;;;21.10;99279.00;;;;2069338;28;20222;-54
2023/12/01 02:48:08;;;;;;;16.25;13.15;;;;;21.10;99279.00;;;;2069608;28;20275;-54
2023/12/01 02:49:09;;;;;;;15.73;11.33;;;;;21.10;99284.00;;;;2060077;28;20226;-54
2023/12/01 02:50:09;;;;;;;14.20;11.93;;;;;21.10;99272.00;;;;2069840;28;20298;-54
2023/12/01 02:51:10;;;;;;;16.10;12.27;;;;;21.10;99274.00;;;;2060099;28;20234;-54
2023/12/01 02:52:10;;;;;;;14.33;11.50;;;;;21.00;99276.00;;;;2060855;28;20249;-54
2023/12/01 02:53:10;;;;;;;15.07;12.40;;;;;21.00;99274.00;;;;2069338;28;20221;-54
2023/12/01 02:54:11;;;;;;;13.87;11.77;;;;;21.00;99274.00;;;;2060220;28;20214;-54
2023/12/01 02:55:11;;;;;;;15.10;12.27;;;;;21.00;99274.00;;;;2068876;28;20737;-58
2023/12/01 02:56:11;;;;;;;13.27;11.07;;;;;21.00;99278.00;;;;2069541;28;20214;-55
2023/12/01 02:57:12;;;;;;;15.07;11.90;;;;;21.00;99271.00;;;;2068537;28;20229;-54
2023/12/01 02:58:12;;;;;;;15.17;12.00;;;;;21.00;99265.00;;;;2065475;28;20715;-56
2023/12/01 02:59:13;;;;;;;15.00;12.40;;;;;21.00;99265.00;;;;2060021;28;20780;-54
2023/12/01 03:00:13;;;;;;;17.20;12.03;;;;;21.00;99288.00;;;;2066179;28;22062;-54
2023/12/01 03:01:14;;;;;;;15.10;12.23;;;;;21.00;99268.00;;;;2070117;28;20214;-54
2023/12/01 03:02:15;;;;;;;14.27;11.52;;;;;20.30;99263.00;;;;2085646;28;20637;-54
2023/12/01 03:03:16;;;;;;;15.27;11.53;;;;;21.00;99273.00;;;;2085152;28;20217;-54
2023/12/01 03:04:16;;;;;;;16.63;12.73;;;;;21.00;99270.00;;;;2057855;28;20495;-54
2023/12/01 03:05:16;;;;;;;15.20;12.40;;;;;21.00;99274.00;;;;2069103;28;20221;-54
2023/12/01 03:06:17;;;;;;;16.23;12.37;;;;;21.00;99273.00;;;;2069578;28;20218;-54
2023/12/01 03:07:17;;;;;;;14.60;11.67;;;;;21.00;99321.00;;;;2066819;28;21187;-55
2023/12/01 03:08:18;;;;;;;14.30;11.40;;;;;21.00;99273.00;;;;2069559;28;20686;-54
2023/12/01 03:09:18;;;;;;;16.07;12.70;;;;;21.00;99289.00;;;;2053859;28;20897;-54
2023/12/01 03:10:19;;;;;;;14.57;11.77;;;;;21.00;99269.00;;;;2082255;28;21395;-54
2023/12/01 03:11:24;;;;;;;15.00;11.00;;;;;21.00;99265.00;;;;2075545;28;20679;-54
2023/12/01 03:12:24;;;;;;;13.57;11.32;;;;;21.00;99266.00;;;;2067836;28;20694;-54
2023/12/01 03:13:24;;;;;;;15.00;11.03;;;;;21.00;99267.00;;;;2069796;28;20221;-54
2023/12/01 03:14:25;;;;;;;14.57;12.10;;;;;21.00;99268.00;;;;2056869;28;20226;-54
2023/12/01 03:15:25;;;;;;;14.60;12.07;;;;;21.00;99264.00;;;;2067768;28;20214;-54
2023/12/01 03:16:25;;;;;;;13.83;11.10;;;;;21.00;99259.00;;;;2069195;28;20213;-54
2023/12/01 03:17:26;;;;;;;15.87;11.67;;;;;20.90;99263.00;;;;2068774;28;20683;-54
2023/12/01 03:18:26;;;;;;;13.97;11.30;;;;;20.90;99258.00;;;;2069832;28;20749;-54
2023/12/01 03:19:26;;;;;;;16.37;12.43;;;;;20.90;99264.00;;;;2059593;28;20248;-54
2023/12/01 03:20:29;;;;;;;15.10;11.03;;;;;20.90;99268.00;;;;2069977;28;20217;-54
2023/12/01 03:21:30;;;;;;;18.08;13.32;;;;;20.90;99263.00;;;;2069486;28;20210;-54
2023/12/01 03:22:30;;;;;;;15.57;12.20;;;;;20.90;99266.00;;;;2067525;28;20312;-54
2023/12/01 03:23:31;;;;;;;15.83;12.10;;;;;20.90;99265.00;;;;2067211;28;20218;-54
2023/12/01 03:24:31;;;;;;;13.60;10.70;;;;;20.90;99264.00;;;;2059805;28;20382;-54
2023/12/01 03:25:33;;;;;;;14.00;11.40;;;;;20.90;99270.00;;;;2069908;28;20210;-54
2023/12/01 03:26:33;;;;;;;14.25;11.73;;;;;20.90;99271.00;;;;2069112;28;20594;-54
2023/12/01 03:27:33;;;;;;;14.77;11.67;;;;;20.90;99270.00;;;;2067887;28;20222;-55
2023/12/01 03:28:34;;;;;;;13.77;10.80;;;;;20.90;99274.00;;;;2067441;28;20224;-54
2023/12/01 03:29:34;;;;;;;16.77;11.67;;;;;20.90;99274.00;;;;2059019;28;20255;-54
2023/12/01 03:30:35;;;;;;;13.80;10.60;;;;;20.90;99274.00;;;;2069821;28;20226;-54
2023/12/01 03:31:35;;;;;;;13.60;11.27;;;;;20.90;99268.00;;;;2069430;28;20218;-54
2023/12/01 03:32:36;;;;;;;14.10;10.70;;;;;20.90;99274.00;;;;2069884;28;20869;-54
2023/12/01 03:33:36;;;;;;;14.63;11.23;;;;;20.90;99280.00;;;;2069394;28;20240;-55
2023/12/01 03:34:37;;;;;;;14.33;11.40;;;;;20.90;99272.00;;;;2060229;28;20217;-55
2023/12/01 03:35:37;;;;;;;15.47;12.60;;;;;20.90;99271.00;;;;2069844;28;20297;-54
2023/12/01 03:36:37;;;;;;;14.07;11.50;;;;;20.90;99269.00;;;;2066841;28;20214;-54
2023/12/01 03:37:38;;;;;;;14.87;11.60;;;;;20.90;99271.00;;;;2069090;28;20228;-54
2023/12/01 03:38:38;;;;;;;15.53;11.87;;;;;20.90;99278.00;;;;2068243;28;20218;-54
2023/12/01 03:39:38;;;;;;;15.20;10.97;;;;;20.90;99273.00;;;;2058667;28;20236;-54
2023/12/01 03:40:39;;;;;;;14.03;11.17;;;;;20.90;99273.00;;;;2068949;28;20287;-54
2023/12/01 03:41:40;;;;;;;13.33;10.60;;;;;20.90;99269.00;;;;2069951;28;20206;-54
2023/12/01 03:42:45;;;;;;;14.70;11.90;;;;;20.90;99274.00;;;;2070019;28;21105;-54
2023/12/01 03:43:45;;;;;;;13.25;10.35;;;;;20.90;99269.00;;;;2061099;28;20225;-54
2023/12/01 03:44:45;;;;;;;13.77;11.10;;;;;20.90;99277.00;;;;2059860;28;20210;-54
2023/12/01 03:45:46;;;;;;;14.40;11.00;;;;;20.90;99280.00;;;;2068285;28;20230;-54
2023/12/01 03:46:47;;;;;;;13.57;10.17;;;;;20.90;99269.00;;;;2069465;28;20568;-54
2023/12/01 03:47:48;;;;;;;14.38;10.90;;;;;20.90;99273.00;;;;2067794;28;20214;-55
2023/12/01 03:48:48;;;;;;;13.63;11.30;;;;;20.90;99273.00;;;;2069721;28;20289;-54
2023/12/01 03:49:49;;;;;;;13.60;10.70;;;;;20.90;99269.00;;;;2059964;28;20292;-54
2023/12/01 03:50:50;;;;;;;13.80;11.27;;;;;20.80;99276.00;;;;2069031;28;20255;-54
2023/12/01 03:51:52;;;;;;;13.60;11.57;;;;;20.80;99283.00;;;;2069735;28;20272;-54
2023/12/01 03:52:52;;;;;;;13.90;10.55;;;;;20.80;99284.00;;;;2068976;28;20221;-56
2023/12/01 03:53:52;;;;;;;12.27;10.40;;;;;20.90;99279.00;;;;2067388;28;20237;-54
2023/12/01 03:54:53;;;;;;;15.07;11.80;;;;;20.80;99278.00;;;;2059311;28;20218;-55
2023/12/01 03:55:53;;;;;;;13.40;10.67;;;;;20.80;99279.00;;;;2069460;28;20292;-56
2023/12/01 03:56:53;;;;;;;13.77;10.83;;;;;20.80;99276.00;;;;2065032;28;20222;-54
2023/12/01 03:57:54;;;;;;;14.90;11.77;;;;;20.80;99278.00;;;;2067445;28;20218;-54
2023/12/01 03:58:54;;;;;;;14.33;11.27;;;;;20.80;99280.00;;;;2069203;28;20241;-54
2023/12/01 03:59:55;;;;;;;14.70;11.80;;;;;20.80;99277.00;;;;2057131;28;20214;-55
2023/12/01 04:00:55;;;;;;;14.23;11.77;;;;;20.70;99274.00;;;;2062669;28;20465;-55
2023/12/01 04:01:55;;;;;;;13.07;10.63;;;;;20.80;99288.00;;;;2063084;28;20219;-55
2023/12/01 04:02:56;;;;;;;13.37;10.70;;;;;20.80;99280.00;;;;2068385;28;20202;-55
2023/12/01 04:03:56;;;;;;;12.23;10.63;;;;;20.80;99285.00;;;;2071249;28;20213;-54
2023/12/01 04:04:56;;;;;;;15.33;11.33;;;;;20.80;99290.00;;;;2064342;28;20218;-54
2023/12/01 04:06:01;;;;;;;13.47;11.03;;;;;20.80;99289.00;;;;2070687;28;20209;-54
2023/12/01 04:07:01;;;;;;;12.88;10.32;;;;;20.80;99285.00;;;;2070096;28;20206;-54
2023/12/01 04:08:03;;;;;;;14.70;11.80;;;;;20.80;99284.00;;;;2070903;28;20289;-54
2023/12/01 04:09:05;;;;;;;12.68;10.07;;;;;20.70;99287.00;;;;2061500;28;20248;-54
2023/12/01 04:10:10;;;;;;;13.40;10.75;;;;;20.80;99291.00;;;;2070698;28;20219;-54
2023/12/01 04:11:11;;;;;;;14.65;11.38;;;;;20.80;99287.00;;;;2071170;28;20218;-54
2023/12/01 04:12:11;;;;;;;13.50;10.50;;;;;20.70;99296.00;;;;2070734;28;20564;-54
2023/12/01 04:13:13;;;;;;;12.93;10.67;;;;;20.80;99294.00;;;;2071115;28;20536;-54
2023/12/01 04:14:13;;;;;;;14.93;11.75;;;;;20.70;99300.00;;;;2059387;28;20221;-54
2023/12/01 04:15:17;;;;;;;13.70;11.80;;;;;20.70;99297.00;;;;2077501;28;20761;-54
2023/12/01 04:16:18;;;;;;;14.82;10.80;;;;;20.80;99300.00;;;;2076251;28;20209;-54
2023/12/01 04:17:21;;;;;;;13.77;10.63;;;;;20.70;99306.00;;;;2068690;28;20636;-54
2023/12/01 04:18:21;;;;;;;12.07;10.15;;;;;20.70;99298.00;;;;2068360;28;20234;-54
2023/12/01 04:19:22;;;;;;;14.10;10.97;;;;;20.70;99307.00;;;;2060503;28;20352;-54
2023/12/01 04:20:25;;;;;;;14.53;11.10;;;;;20.70;99311.00;;;;2071154;28;20523;-55
2023/12/01 04:21:25;;;;;;;12.43;10.13;;;;;20.70;99311.00;;;;2070629;28;20210;-54
2023/12/01 04:22:26;;;;;;;13.40;10.03;;;;;20.70;99330.00;;;;2070499;28;20225;-54
2023/12/01 04:23:26;;;;;;;13.87;10.60;;;;;20.70;99307.00;;;;2071096;28;20712;-54
2023/12/01 04:24:28;;;;;;;15.17;11.47;;;;;20.70;99308.00;;;;2060802;28;20246;-54
2023/12/01 04:25:29;;;;;;;12.40;10.48;;;;;20.70;99316.00;;;;2070342;28;20874;-54
2023/12/01 04:26:29;;;;;;;16.27;12.23;;;;;20.70;99307.00;;;;2070596;28;20218;-54
2023/12/01 04:27:30;;;;;;;16.77;12.73;;;;;20.70;99307.00;;;;2070531;28;20682;-54
2023/12/01 04:28:30;;;;;;;14.73;11.15;;;;;20.70;99311.00;;;;2070060;28;20214;-54
2023/12/01 04:29:31;;;;;;;12.13;9.93;;;;;20.70;99308.00;;;;2060961;28;20959;-54
2023/12/01 04:30:32;;;;;;;16.53;11.07;;;;;20.70;99309.00;;;;2071012;28;20694;-53
2023/12/01 04:31:32;;;;;;;13.37;10.10;;;;;20.70;99310.00;;;;2070447;28;20218;-54
2023/12/01 04:32:32;;;;;;;13.17;10.90;;;;;20.70;99310.00;;;;2070448;28;20460;-54
2023/12/01 04:33:33;;;;;;;12.57;10.43;;;;;20.70;99316.00;;;;2073186;28;20225;-54
2023/12/01 04:34:33;;;;;;;13.40;10.90;;;;;20.70;99309.00;;;;2063201;28;20214;-54
2023/12/01 04:35:35;;;;;;;12.27;9.87;;;;;20.70;99324.00;;;;2070570;28;20566;-54
2023/12/01 04:36:35;;;;;;;11.93;10.05;;;;;20.70;99312.00;;;;2070947;28;20574;-54
2023/12/01 04:37:36;;;;;;;15.10;11.17;;;;;19.60;99326.00;;;;2068327;28;20238;-54
2023/12/01 04:38:36;;;;;;;13.30;11.10;;;;;20.70;99318.00;;;;2069748;28;20807;-54
2023/12/01 04:39:36;;;;;;;13.07;10.23;;;;;20.70;99321.00;;;;2060742;28;20612;-54
2023/12/01 04:40:37;;;;;;;12.70;9.50;;;;;20.70;99320.00;;;;2069064;28;20586;-54
2023/12/01 04:41:37;;;;;;;13.50;11.00;;;;;20.60;99317.00;;;;2070711;28;20214;-54
2023/12/01 04:42:37;;;;;;;12.83;11.20;;;;;20.60;99324.00;;;;2066383;28;20385;-54
2023/12/01 04:43:39;;;;;;;13.83;10.27;;;;;20.60;99322.00;;;;2070726;28;20207;-54
2023/12/01 04:44:39;;;;;;;14.13;11.10;;;;;20.60;99316.00;;;;2060977;28;20312;-54
2023/12/01 04:45:40;;;;;;;13.10;10.37;;;;;20.60;99317.00;;;;2070312;28;20376;-54
2023/12/01 04:46:40;;;;;;;14.13;10.50;;;;;20.60;99323.00;;;;2069320;28;20706;-54
2023/12/01 04:47:41;;;;;;;14.13;10.17;;;;;20.60;99326.00;;;;2067190;28;20694;-54
2023/12/01 04:48:41;;;;;;;12.20;9.37;;;;;20.60;99325.00;;;;2070205;28;20310;-54
2023/12/01 04:49:41;;;;;;;12.37;10.20;;;;;20.60;99320.00;;;;2060658;28;20842;-54
2023/12/01 04:50:46;;;;;;;12.80;10.10;;;;;20.60;99327.00;;;;2070462;28;20217;-54
2023/12/01 04:51:47;;;;;;;12.43;10.27;;;;;20.60;99325.00;;;;2070756;28;20245;-54
2023/12/01 04:52:52;;;;;;;12.37;9.90;;;;;20.60;99323.00;;;;2070522;28;20678;-54
2023/12/01 04:53:53;;;;;;;12.52;9.98;;;;;19.80;99330.00;;;;2063059;28;20370;-54
2023/12/01 04:54:53;;;;;;;12.20;9.97;;;;;20.60;99337.00;;;;2060461;28;20234;-54
2023/12/01 04:55:54;;;;;;;12.37;10.17;;;;;20.60;99328.00;;;;2069586;28;20218;-59